createdAt,value
2022-08-04T00:00:15.974Z,22.54
2022-08-04T00:02:58.631Z,22.49
2022-08-04T00:05:37.065Z,22.14
2022-08-04T00:08:17.575Z,22.53
2022-08-04T00:10:50.861Z,22.52
2022-08-04T00:13:24.441Z,22.31
2022-08-04T00:15:54.644Z,22.06
2022-08-04T00:18:27.919Z,22.50
2022-08-04T00:20:58.995Z,21.91
2022-08-04T00:23:28.636Z,22.51
2022-08-04T00:26:18.398Z,22.50
2022-08-04T00:28:47.987Z,21.92
2022-08-04T00:31:17.410Z,22.51
2022-08-04T00:33:47.488Z,22.51
2022-08-04T00:36:16.714Z,22.53
2022-08-04T00:38:46.204Z,22.53
2022-08-04T00:41:24.257Z,22.52
2022-08-04T00:44:10.669Z,22.41
2022-08-04T00:46:58.545Z,22.51
2022-08-04T00:49:48.614Z,22.53
2022-08-04T00:52:33.583Z,22.53
2022-08-04T00:55:17.750Z,22.52
2022-08-04T00:58:05.209Z,22.52
2022-08-04T01:00:44.717Z,22.53
2022-08-04T01:03:19.774Z,21.85
2022-08-04T01:06:04.952Z,22.50
2022-08-04T01:08:54.866Z,22.53
2022-08-04T01:11:56.136Z,22.44
2022-08-04T01:14:35.826Z,22.51
2022-08-04T01:17:18.307Z,22.03
2022-08-04T01:20:02.731Z,22.50
2022-08-04T01:22:58.341Z,22.50
2022-08-04T01:26:01.092Z,22.48
2022-08-04T01:28:47.866Z,22.49
2022-08-04T01:31:40.761Z,22.49
2022-08-04T01:34:13.937Z,22.48
2022-08-04T01:36:50.036Z,22.49
2022-08-04T01:39:38.345Z,22.49
2022-08-04T01:42:09.713Z,22.48
2022-08-04T01:44:39.208Z,22.48
2022-08-04T01:47:10.980Z,22.09
2022-08-04T01:49:41.142Z,22.46
2022-08-04T01:52:11.459Z,22.41
2022-08-04T01:54:42.321Z,22.52
2022-08-04T01:57:38.755Z,21.54
2022-08-04T02:00:01.560Z,22.48
2022-08-04T02:02:31.248Z,22.13
2022-08-04T02:04:59.246Z,22.51
2022-08-04T02:07:39.047Z,22.52
2022-08-04T02:10:09.100Z,22.51
2022-08-04T02:12:57.331Z,22.46
2022-08-04T02:15:30.261Z,22.52
2022-08-04T02:18:07.283Z,22.52
2022-08-04T02:20:39.272Z,21.97
2022-08-04T02:23:11.146Z,22.49
2022-08-04T02:25:46.600Z,22.52
2022-08-04T02:28:23.759Z,22.48
2022-08-04T02:31:01.708Z,22.51
2022-08-04T02:33:37.860Z,22.51
2022-08-04T02:36:08.031Z,22.50
2022-08-04T02:38:49.339Z,22.50
2022-08-04T02:41:19.067Z,22.49
2022-08-04T02:43:50.795Z,21.77
2022-08-04T02:46:22.131Z,22.49
2022-08-04T02:48:54.136Z,22.48
2022-08-04T02:51:25.598Z,22.50
2022-08-04T02:53:56.042Z,22.51
2022-08-04T02:56:25.843Z,22.54
2022-08-04T02:58:57.818Z,22.53
2022-08-04T03:01:25.785Z,22.53
2022-08-04T03:04:12.444Z,22.53
2022-08-04T03:07:20.054Z,22.53
2022-08-04T03:10:19.711Z,22.51
2022-08-04T03:13:08.034Z,22.50
2022-08-04T03:16:03.323Z,22.49
2022-08-04T03:19:10.208Z,22.49
2022-08-04T03:22:20.119Z,22.46
2022-08-04T03:25:31.637Z,22.47
2022-08-04T03:28:49.564Z,22.46
2022-08-04T03:31:46.735Z,22.46
2022-08-04T03:34:40.373Z,22.14
2022-08-04T03:37:27.211Z,22.42
2022-08-04T03:40:29.435Z,22.45
2022-08-04T03:43:57.482Z,22.45
2022-08-04T03:46:53.410Z,22.45
2022-08-04T03:50:04.495Z,22.45
2022-08-04T03:53:20.121Z,22.44
2022-08-04T03:56:22.124Z,22.44
2022-08-04T03:59:16.645Z,22.43
2022-08-04T04:02:19.179Z,22.43
2022-08-04T04:05:05.476Z,22.37
2022-08-04T04:08:08.664Z,22.46
2022-08-04T04:11:19.325Z,22.32
2022-08-04T04:14:12.866Z,22.46
2022-08-04T04:16:59.801Z,22.46
2022-08-04T04:19:45.812Z,22.36
2022-08-04T04:22:38.295Z,22.47
2022-08-04T04:25:17.018Z,22.45
2022-08-04T04:28:43.678Z,22.48
2022-08-04T04:31:04.601Z,22.48
2022-08-04T04:33:44.404Z,22.45
2022-08-04T04:36:20.365Z,22.46
2022-08-04T04:39:02.964Z,22.33
2022-08-04T04:41:48.090Z,22.43
2022-08-04T04:44:45.687Z,22.47
2022-08-04T04:47:42.933Z,22.46
2022-08-04T04:50:28.632Z,22.47
2022-08-04T04:53:12.211Z,22.25
2022-08-04T04:55:48.391Z,22.48
2022-08-04T04:58:20.137Z,22.49
2022-08-04T05:01:18.475Z,22.20
2022-08-04T05:04:13.187Z,22.48
2022-08-04T05:06:55.917Z,22.48
2022-08-04T05:09:41.379Z,22.48
2022-08-04T05:14:32.196Z,22.48
2022-08-04T05:15:33.302Z,22.47
2022-08-04T05:18:03.260Z,22.47
2022-08-04T05:20:36.802Z,22.48
2022-08-04T05:23:12.477Z,22.47
2022-08-04T05:25:58.794Z,22.40
2022-08-04T05:28:30.633Z,22.50
2022-08-04T05:31:02.651Z,22.50
2022-08-04T05:33:35.921Z,22.45
2022-08-04T05:36:20.446Z,22.51
2022-08-04T05:39:00.012Z,22.47
2022-08-04T05:41:32.367Z,22.49
2022-08-04T05:44:16.291Z,22.49
2022-08-04T05:46:45.687Z,22.45
2022-08-04T05:49:23.894Z,22.49
2022-08-04T05:51:53.965Z,22.50
2022-08-04T05:54:23.213Z,22.47
2022-08-04T05:56:52.626Z,22.47
2022-08-04T05:59:23.806Z,22.50
2022-08-04T06:01:55.060Z,22.49
2022-08-04T06:04:28.494Z,22.51
2022-08-04T06:06:58.020Z,22.51
2022-08-04T06:09:26.414Z,22.55
2022-08-04T06:12:03.271Z,22.54
2022-08-04T06:14:36.642Z,22.60
2022-08-04T06:18:33.949Z,22.62
2022-08-04T06:20:18.377Z,22.64
2022-08-04T06:22:51.775Z,22.40
2022-08-04T06:25:23.694Z,22.60
2022-08-04T06:27:53.553Z,22.61
2022-08-04T06:30:29.320Z,22.68
2022-08-04T06:33:04.141Z,22.69
2022-08-04T06:35:34.225Z,22.48
2022-08-04T06:38:04.283Z,22.69
2022-08-04T06:40:34.751Z,22.68
2022-08-04T06:43:04.156Z,22.67
2022-08-04T06:45:34.578Z,22.67
2022-08-04T06:48:04.740Z,22.67
2022-08-04T06:51:32.822Z,22.65
2022-08-04T06:53:23.083Z,22.62
2022-08-04T06:55:52.077Z,22.48
2022-08-04T06:58:22.073Z,22.63
2022-08-04T07:00:50.793Z,22.56
2022-08-04T07:03:22.114Z,22.62
2022-08-04T07:05:52.672Z,22.50
2022-08-04T07:08:22.901Z,22.63
2022-08-04T07:10:53.338Z,22.61
2022-08-04T07:13:23.503Z,22.62
2022-08-04T07:15:51.904Z,22.60
2022-08-04T07:18:19.962Z,22.61
2022-08-04T07:20:48.945Z,22.60
2022-08-04T07:23:19.902Z,22.58
2022-08-04T07:26:00.387Z,22.61
2022-08-04T07:28:41.248Z,22.59
2022-08-04T07:31:31.891Z,22.59
2022-08-04T07:34:20.636Z,22.59
2022-08-04T07:36:55.196Z,22.58
2022-08-04T07:39:28.528Z,22.59
2022-08-04T07:42:02.003Z,22.58
2022-08-04T07:44:31.325Z,22.41
2022-08-04T07:46:59.909Z,22.59
2022-08-04T07:49:56.447Z,22.59
2022-08-04T07:52:17.524Z,22.60
2022-08-04T07:54:46.196Z,22.17
2022-08-04T07:57:19.218Z,22.59
2022-08-04T07:59:50.313Z,22.60
2022-08-04T08:02:21.920Z,22.31
2022-08-04T08:04:50.846Z,22.58
2022-08-04T08:07:20.455Z,22.57
2022-08-04T08:09:48.551Z,22.58
2022-08-04T08:12:36.859Z,22.56
2022-08-04T08:15:07.799Z,22.56
2022-08-04T08:17:58.836Z,22.55
2022-08-04T08:20:28.851Z,22.54
2022-08-04T08:22:58.288Z,22.52
2022-08-04T08:25:26.782Z,22.53
2022-08-04T08:27:56.845Z,22.53
2022-08-04T08:30:25.220Z,22.49
2022-08-04T08:33:01.349Z,22.53
2022-08-04T08:35:33.693Z,22.52
2022-08-04T08:38:08.439Z,22.51
2022-08-04T08:40:46.782Z,22.50
2022-08-04T08:44:03.823Z,22.48
2022-08-04T08:46:49.404Z,22.52
2022-08-04T08:50:01.811Z,22.54
2022-08-04T08:53:01.273Z,22.52
2022-08-04T08:55:41.814Z,22.49
2022-08-04T08:58:25.354Z,22.49
2022-08-04T09:01:04.248Z,22.50
2022-08-04T09:04:11.003Z,22.63
2022-08-04T09:07:28.352Z,22.73
2022-08-04T09:10:11.888Z,22.79
2022-08-04T09:12:47.611Z,22.81
2022-08-04T09:15:23.287Z,22.82
2022-08-04T09:17:55.752Z,22.72
2022-08-04T09:20:36.749Z,22.81
2022-08-04T09:23:18.471Z,22.84
2022-08-04T09:25:52.388Z,22.85
2022-08-04T09:28:50.865Z,22.85
2022-08-04T09:31:17.962Z,22.50
2022-08-04T09:33:51.954Z,22.86
2022-08-04T09:36:29.525Z,22.78
2022-08-04T09:39:12.975Z,22.85
2022-08-04T09:41:52.914Z,22.86
2022-08-04T09:44:49.356Z,22.86
2022-08-04T09:47:40.146Z,22.84
2022-08-04T09:50:31.083Z,22.86
2022-08-04T09:53:22.198Z,22.85
2022-08-04T09:56:03.050Z,22.85
2022-08-04T09:58:47.715Z,22.86
2022-08-04T10:01:23.057Z,22.86
2022-08-04T10:03:57.638Z,22.60
2022-08-04T10:06:47.520Z,22.87
2022-08-04T10:09:29.857Z,22.88
2022-08-04T10:12:09.807Z,22.80
2022-08-04T10:14:41.427Z,22.70
2022-08-04T10:17:24.324Z,22.88
2022-08-04T10:20:04.542Z,22.85
2022-08-04T10:22:55.578Z,22.88
2022-08-04T10:26:06.885Z,22.88
2022-08-04T10:28:31.649Z,22.89
2022-08-04T10:31:04.608Z,22.90
2022-08-04T10:33:38.653Z,22.90
2022-08-04T10:36:12.515Z,22.90
2022-08-04T10:38:51.338Z,22.52
2022-08-04T10:41:26.694Z,22.90
2022-08-04T10:44:07.592Z,22.89
2022-08-04T10:46:41.762Z,22.89
2022-08-04T10:49:15.912Z,22.89
2022-08-04T10:51:58.642Z,22.89
2022-08-04T10:54:32.638Z,22.91
2022-08-04T10:57:05.816Z,22.91
2022-08-04T10:59:40.036Z,22.90
2022-08-04T11:02:20.944Z,22.90
2022-08-04T11:04:54.597Z,22.58
2022-08-04T11:07:25.244Z,22.90
2022-08-04T11:09:53.965Z,22.83
2022-08-04T11:12:29.240Z,22.88
2022-08-04T11:15:01.257Z,22.88
2022-08-04T11:17:34.120Z,22.88
2022-08-04T11:20:33.961Z,22.83
2022-08-04T11:23:07.501Z,22.88
2022-08-04T11:25:47.251Z,22.89
2022-08-04T11:28:26.787Z,22.63
2022-08-04T11:31:00.523Z,22.90
2022-08-04T11:33:37.336Z,22.89
2022-08-04T11:36:14.984Z,22.88
2022-08-04T11:38:54.624Z,22.90
2022-08-04T11:41:35.250Z,22.90
2022-08-04T11:44:10.572Z,22.57
2022-08-04T11:46:44.243Z,22.90
2022-08-04T11:49:22.200Z,22.63
2022-08-04T11:51:52.393Z,22.86
2022-08-04T11:54:23.122Z,22.92
2022-08-04T11:56:51.483Z,22.66
2022-08-04T11:59:23.095Z,22.91
2022-08-04T12:02:06.560Z,22.74
2022-08-04T12:04:47.490Z,22.71
2022-08-04T12:07:30.601Z,22.89
2022-08-04T12:10:41.201Z,22.90
2022-08-04T12:13:20.480Z,22.48
2022-08-04T12:15:57.367Z,22.89
2022-08-04T12:18:32.212Z,22.90
2022-08-04T12:21:02.687Z,22.88
2022-08-04T12:23:36.489Z,22.88
2022-08-04T12:26:09.259Z,22.88
2022-08-04T12:29:08.477Z,22.88
2022-08-04T12:31:32.374Z,22.81
2022-08-04T12:34:06.166Z,22.87
2022-08-04T12:36:40.408Z,22.88
2022-08-04T12:39:13.110Z,22.89
2022-08-04T12:41:49.826Z,22.89
2022-08-04T12:44:33.274Z,22.68
2022-08-04T12:47:24.391Z,22.90
2022-08-04T12:50:02.476Z,22.80
2022-08-04T12:53:00.323Z,22.90
2022-08-04T12:55:24.028Z,22.76
2022-08-04T12:57:55.839Z,22.90
2022-08-04T13:00:32.158Z,22.89
2022-08-04T13:03:09.734Z,22.89
2022-08-04T13:05:40.138Z,22.89
2022-08-04T13:08:09.567Z,22.88
2022-08-04T13:10:41.536Z,22.88
2022-08-04T13:13:18.228Z,22.87
2022-08-04T13:15:57.939Z,22.87
2022-08-04T13:18:32.294Z,22.88
2022-08-04T13:21:19.768Z,22.80
2022-08-04T13:26:55.495Z,22.90
2022-08-04T13:29:59.660Z,22.91
2022-08-04T13:30:25.416Z,22.90
2022-08-04T13:32:20.638Z,22.92
2022-08-04T13:34:52.835Z,22.93
2022-08-04T13:37:26.713Z,22.90
2022-08-04T13:39:56.873Z,22.71
2022-08-04T13:42:28.063Z,22.93
2022-08-04T13:44:59.184Z,22.94
2022-08-04T13:47:30.354Z,22.92
2022-08-04T13:50:11.525Z,22.89
2022-08-04T13:52:40.821Z,22.70
2022-08-04T13:55:09.842Z,22.92
2022-08-04T13:57:45.327Z,22.85
2022-08-04T14:00:17.069Z,22.92
2022-08-04T14:03:02.602Z,22.88
2022-08-04T14:05:36.867Z,22.91
2022-08-04T14:08:23.025Z,22.91
2022-08-04T14:10:56.057Z,22.52
2022-08-04T14:13:41.524Z,22.90
2022-08-04T14:16:19.602Z,22.66
2022-08-04T14:18:47.942Z,22.88
2022-08-04T14:21:17.313Z,22.88
2022-08-04T14:23:49.194Z,22.86
2022-08-04T14:26:31.558Z,22.89
2022-08-04T14:29:26.174Z,22.87
2022-08-04T14:32:05.550Z,22.89
2022-08-04T14:34:41.326Z,22.89
2022-08-04T14:37:16.806Z,22.89
2022-08-04T14:40:07.935Z,22.89
2022-08-04T14:42:42.404Z,22.87
2022-08-04T14:45:12.215Z,22.85
2022-08-04T14:47:52.513Z,22.89
2022-08-04T14:50:33.490Z,22.90
2022-08-04T14:53:04.699Z,22.90
2022-08-04T14:55:32.723Z,22.90
2022-08-04T14:58:36.947Z,22.91
2022-08-04T15:00:50.017Z,22.65
2022-08-04T15:03:22.313Z,22.90
2022-08-04T15:06:00.554Z,22.66
2022-08-04T15:08:32.506Z,22.88
2022-08-04T15:11:03.117Z,22.66
2022-08-04T15:13:32.211Z,22.89
2022-08-04T15:16:07.459Z,22.87
2022-08-04T15:18:39.086Z,22.88
2022-08-04T15:21:08.317Z,22.85
2022-08-04T15:23:38.746Z,22.87
2022-08-04T15:26:11.022Z,22.90
2022-08-04T15:28:41.024Z,22.89
2022-08-04T15:32:03.967Z,22.80
2022-08-04T15:34:00.442Z,22.88
2022-08-04T15:36:37.847Z,22.89
2022-08-04T15:39:13.058Z,22.87
2022-08-04T15:41:55.069Z,22.88
2022-08-04T15:44:48.323Z,22.86
2022-08-04T15:47:17.063Z,22.86
2022-08-04T15:49:47.022Z,22.86
2022-08-04T15:52:18.141Z,22.83
2022-08-04T15:54:52.471Z,22.86
2022-08-04T15:58:06.005Z,22.82
2022-08-04T16:01:11.004Z,22.83
2022-08-04T16:03:58.066Z,22.82
2022-08-04T16:06:45.537Z,22.83
2022-08-04T16:09:45.148Z,22.82
2022-08-04T16:12:55.957Z,22.79
2022-08-04T16:15:41.706Z,22.81
2022-08-04T16:18:14.546Z,22.81
2022-08-04T16:20:58.059Z,22.79
2022-08-04T16:24:02.058Z,22.70
2022-08-04T16:26:53.573Z,22.81
2022-08-04T16:29:42.309Z,22.79
2022-08-04T16:32:21.844Z,22.79
2022-08-04T16:34:56.348Z,22.74
2022-08-04T16:37:32.203Z,22.60
2022-08-04T16:40:28.610Z,22.81
2022-08-04T16:43:04.429Z,22.77
2022-08-04T16:45:58.964Z,22.80
2022-08-04T16:48:28.361Z,22.77
2022-08-04T16:51:04.677Z,22.62
2022-08-04T16:54:03.690Z,22.79
2022-08-04T16:56:33.551Z,22.79
2022-08-04T16:59:08.082Z,22.79
2022-08-04T17:01:36.598Z,22.63
2022-08-04T17:04:08.410Z,22.69
2022-08-04T17:06:38.580Z,22.82
2022-08-04T17:09:11.897Z,22.82
2022-08-04T17:11:40.127Z,22.82
2022-08-04T17:14:08.113Z,22.83
2022-08-04T17:16:38.930Z,22.84
2022-08-04T17:19:23.749Z,22.82
2022-08-04T17:22:02.234Z,22.77
2022-08-04T17:24:32.613Z,22.84
2022-08-04T17:27:00.760Z,22.34
2022-08-04T17:29:42.997Z,22.79
2022-08-04T17:32:15.255Z,22.82
2022-08-04T17:34:44.549Z,22.84
2022-08-04T17:37:52.057Z,22.83
2022-08-04T17:40:10.655Z,22.83
2022-08-04T17:42:40.465Z,22.83
2022-08-04T17:48:00.191Z,22.61
2022-08-04T17:50:30.214Z,22.82
2022-08-04T17:53:01.857Z,22.82
2022-08-04T17:55:42.692Z,22.72
2022-08-04T17:58:21.371Z,22.49
2022-08-04T18:01:23.568Z,22.40
2022-08-04T18:03:51.509Z,22.80
2022-08-04T18:06:22.009Z,22.81
2022-08-04T18:08:57.415Z,22.82
2022-08-04T18:11:29.481Z,22.82
2022-08-04T18:14:10.534Z,22.81
2022-08-04T18:16:45.254Z,22.82
2022-08-04T18:19:15.838Z,22.81
2022-08-04T18:21:59.558Z,22.82
2022-08-04T18:24:34.264Z,22.82
2022-08-04T18:27:22.022Z,22.82
2022-08-04T18:30:33.880Z,22.82
2022-08-04T18:33:04.441Z,22.81
2022-08-04T18:36:32.563Z,22.82
2022-08-04T18:38:22.609Z,22.81
2022-08-04T18:40:53.173Z,22.81
2022-08-04T18:43:28.784Z,22.81
2022-08-04T18:46:14.630Z,22.80
2022-08-04T18:48:42.815Z,22.79
2022-08-04T18:51:23.889Z,22.77
2022-08-04T18:53:58.321Z,22.80
2022-08-04T18:56:31.650Z,22.80
2022-08-04T18:59:03.693Z,22.80
2022-08-04T19:02:13.139Z,22.80
2022-08-04T19:04:32.829Z,22.28
2022-08-04T19:07:29.141Z,22.64
2022-08-04T19:09:52.184Z,22.81
2022-08-04T19:12:27.090Z,22.75
2022-08-04T19:14:58.327Z,22.82
2022-08-04T19:17:54.296Z,22.62
2022-08-04T19:20:16.039Z,22.82
2022-08-04T19:25:58.383Z,22.65
2022-08-04T19:28:29.864Z,22.81
2022-08-04T19:31:01.192Z,22.81
2022-08-04T19:33:55.610Z,22.82
2022-08-04T19:36:17.564Z,22.82
2022-08-04T19:38:46.049Z,22.63
2022-08-04T19:41:16.608Z,22.82
2022-08-04T19:43:47.281Z,22.51
2022-08-04T19:46:17.803Z,22.86
2022-08-04T19:48:59.306Z,22.85
2022-08-04T19:51:29.783Z,22.72
2022-08-04T19:54:03.921Z,22.85
2022-08-04T19:56:40.668Z,22.71
2022-08-04T19:59:11.333Z,22.83
2022-08-04T20:01:45.159Z,22.76
2022-08-04T20:04:14.335Z,22.83
2022-08-04T20:06:42.589Z,22.59
2022-08-04T20:09:26.000Z,22.64
2022-08-04T20:11:56.085Z,22.85
2022-08-04T20:14:32.040Z,22.65
2022-08-04T20:17:10.261Z,22.85
2022-08-04T20:19:39.572Z,22.73
2022-08-04T20:22:50.779Z,22.83
2022-08-04T20:25:01.110Z,22.80
2022-08-04T20:27:59.406Z,22.80
2022-08-04T20:30:29.144Z,22.81
2022-08-04T20:33:00.145Z,22.82
2022-08-04T20:35:28.070Z,22.82
2022-08-04T20:38:00.775Z,22.82
2022-08-04T20:40:29.808Z,22.81
2022-08-04T20:42:58.156Z,22.84
2022-08-04T20:45:57.105Z,22.72
2022-08-04T20:48:15.861Z,22.85
2022-08-04T20:50:46.385Z,22.83
2022-08-04T20:53:16.568Z,22.71
2022-08-04T20:58:33.919Z,22.87
2022-08-04T21:01:02.018Z,22.87
2022-08-04T21:03:59.925Z,22.71
2022-08-04T21:06:28.987Z,22.85
2022-08-04T21:08:58.191Z,22.85
2022-08-04T21:11:32.868Z,22.71
2022-08-04T21:14:01.140Z,22.80
2022-08-04T21:16:55.905Z,22.81
2022-08-04T21:19:18.637Z,22.83
2022-08-04T21:21:53.362Z,22.82
2022-08-04T21:24:25.897Z,22.83
2022-08-04T21:26:56.868Z,22.68
2022-08-04T21:29:29.548Z,22.74
2022-08-04T21:32:04.056Z,22.82
2022-08-04T21:34:38.178Z,22.82
2022-08-04T21:37:10.058Z,22.81
2022-08-04T21:39:50.485Z,22.82
2022-08-04T21:42:28.972Z,22.80
2022-08-04T21:45:11.913Z,22.81
2022-08-04T21:47:46.229Z,22.81
2022-08-04T21:50:20.091Z,22.80
2022-08-04T21:52:48.488Z,22.77
2022-08-04T21:55:17.007Z,22.80
2022-08-04T21:57:46.839Z,22.81
2022-08-04T22:00:20.096Z,22.55
2022-08-04T22:02:53.460Z,22.79
2022-08-04T22:05:23.252Z,22.81
2022-08-04T22:07:51.812Z,22.79
2022-08-04T22:10:32.021Z,22.81
2022-08-04T22:13:07.118Z,22.75
2022-08-04T22:16:04.308Z,22.79
2022-08-04T22:18:26.019Z,22.70
2022-08-04T22:20:56.988Z,22.79
2022-08-04T22:23:26.314Z,22.80
2022-08-04T22:25:56.093Z,22.79
2022-08-04T22:28:28.411Z,22.78
2022-08-04T22:30:56.989Z,22.79
2022-08-04T22:33:54.724Z,22.81
2022-08-04T22:36:16.856Z,22.78
2022-08-04T22:38:50.355Z,22.78
2022-08-04T22:41:33.819Z,22.79
2022-08-04T22:44:02.423Z,22.79
2022-08-04T22:46:31.484Z,22.72
2022-08-04T22:48:59.299Z,22.79
2022-08-04T22:51:28.882Z,22.78
2022-08-04T22:53:57.919Z,22.79
2022-08-04T22:56:38.659Z,22.79
2022-08-04T22:59:11.297Z,22.76
2022-08-04T23:01:58.693Z,22.79
2022-08-04T23:04:28.400Z,22.79
2022-08-04T23:06:57.634Z,22.80
2022-08-04T23:09:49.035Z,22.76
2022-08-04T23:12:24.330Z,22.78
2022-08-04T23:14:54.798Z,22.79
2022-08-04T23:17:23.092Z,22.67
2022-08-04T23:19:58.245Z,22.80
2022-08-04T23:22:42.335Z,22.79
2022-08-04T23:25:16.581Z,22.80
2022-08-04T23:27:50.665Z,22.62
2022-08-04T23:30:22.004Z,22.79
2022-08-04T23:32:53.309Z,22.78
2022-08-04T23:35:22.106Z,22.79
2022-08-04T23:37:56.876Z,22.45
2022-08-04T23:40:32.908Z,22.80
2022-08-04T23:43:01.940Z,22.56
2022-08-04T23:46:04.557Z,22.78
2022-08-04T23:48:19.385Z,22.79
2022-08-04T23:50:50.038Z,22.77
2022-08-04T23:53:22.435Z,22.79
2022-08-04T23:55:50.755Z,22.76
2022-08-04T23:58:24.932Z,22.77
